Time;durP1;ratioP1;P1;durP2;ratioP2;P2;SDS_P1;SDS_P2;PMS_P1;PMS_P2;Temp;Humidity;BMP_temperature;BMP_pressure;BME280_temperature;BME280_humidity;BME280_pressure;Samples;Min_cycle;Max_cycle;Signal;HPM_P1;HPM_P2
2022/11/03 00:01:39;;;;;;;12.52;2.38;;;;;;;15.85;55.58;101305.66;5012004;28;19956;-46
2022/11/03 00:04:10;;;;;;;12.45;2.45;;;;;;;15.90;55.69;101303.88;5012083;28;20033;-46
2022/11/03 00:06:36;;;;;;;12.05;2.00;;;;;;;15.78;56.24;101294.25;5011798;28;20505;-47
2022/11/03 00:09:04;;;;;;;12.70;2.70;;;;;;;15.79;56.04;101297.75;5011698;28;20026;-44
2022/11/03 00:11:33;;;;;;;11.45;2.45;;;;;;;15.84;56.05;101293.38;5011531;28;20034;-44
2022/11/03 00:13:58;;;;;;;9.65;2.35;;;;;;;16.02;55.81;101285.44;5011943;28;20105;-43
2022/11/03 00:16:24;;;;;;;11.82;2.38;;;;;;;15.83;56.18;101281.09;5011858;28;20118;-44
2022/11/03 00:18:50;;;;;;;9.27;2.50;;;;;;;15.74;56.65;101275.84;5011666;28;20256;-44
2022/11/03 00:21:15;;;;;;;12.00;2.40;;;;;;;15.75;56.83;101282.84;5010412;28;20454;-47
2022/11/03 00:23:43;;;;;;;11.18;2.60;;;;;;;16.01;55.97;101291.59;5011367;28;20083;-48
2022/11/03 00:26:14;;;;;;;13.68;2.55;;;;;;;15.76;56.69;101298.63;5012510;28;20025;-49
2022/11/03 00:28:41;;;;;;;13.20;2.30;;;;;;;15.75;57.17;101291.63;5011827;28;20497;-44
2022/11/03 00:31:11;;;;;;;14.55;2.38;;;;;;;15.89;56.60;101286.34;5011466;28;20475;-49
2022/11/03 00:33:38;;;;;;;13.90;2.45;;;;;;;15.63;57.50;101281.13;5011629;28;20494;-44
2022/11/03 00:36:04;;;;;;;10.60;2.22;;;;;;;15.82;57.06;101288.09;5011936;28;20076;-44
2022/11/03 00:38:30;;;;;;;14.65;2.67;;;;;;;15.92;56.73;101277.59;5011909;28;20026;-45
2022/11/03 00:41:00;;;;;;;12.57;2.60;;;;;;;15.97;56.46;101276.69;5011615;28;20168;-45
2022/11/03 00:43:27;;;;;;;10.93;2.50;;;;;;;15.89;56.81;101280.22;5012074;28;20394;-45
2022/11/03 00:45:53;;;;;;;13.05;2.60;;;;;;;16.07;56.28;101270.53;5010377;28;20033;-45
2022/11/03 00:48:28;;;;;;;13.40;2.65;;;;;;;16.03;56.52;101260.91;5011825;28;20398;-44
2022/11/03 00:50:54;;;;;;;13.32;2.70;;;;;;;15.94;57.13;101263.53;5010841;28;20025;-48
2022/11/03 00:53:19;;;;;;;10.98;2.28;;;;;;;16.08;56.70;101261.75;5011248;28;20038;-45
2022/11/03 00:55:49;;;;;;;12.25;2.60;;;;;;;16.10;56.48;101259.97;5010035;28;20466;-46
2022/11/03 00:58:14;;;;;;;12.90;2.78;;;;;;;16.10;56.95;101264.41;5011019;28;20030;-45
2022/11/03 01:00:39;;;;;;;12.75;2.85;;;;;;;16.09;57.01;101258.25;5026394;28;20021;-43
2022/11/03 01:03:05;;;;;;;11.73;2.47;;;;;;;15.83;57.87;101258.31;5013476;28;20014;-42
2022/11/03 01:08:14;;;;;;;13.33;2.67;;;;;;;15.73;58.23;101250.47;5010844;28;20037;-47
2022/11/03 01:11:42;;;;;;;14.27;2.35;;;;;;;16.00;57.67;101249.50;5010398;28;20038;-45
2022/11/03 01:13:25;;;;;;;11.88;2.40;;;;;;;15.88;58.09;101239.91;5010680;28;20399;-45
2022/11/03 01:15:50;;;;;;;14.73;2.45;;;;;;;15.92;57.75;101244.25;5010855;28;20327;-42
2022/11/03 01:18:15;;;;;;;11.82;2.38;;;;;;;15.69;58.41;101241.69;5010625;28;20033;-44
2022/11/03 01:20:41;;;;;;;16.45;2.78;;;;;;;15.86;58.48;101228.50;5025433;28;20022;-47
2022/11/03 01:23:06;;;;;;;12.70;2.70;;;;;;;15.97;58.14;101232.00;5010842;28;20096;-44
2022/11/03 01:25:31;;;;;;;15.43;2.30;;;;;;;15.91;58.39;101226.75;5011204;28;20029;-43
2022/11/03 01:27:56;;;;;;;16.13;3.00;;;;;;;15.79;58.58;101221.53;5010736;28;20729;-45
2022/11/03 01:30:22;;;;;;;12.35;2.30;;;;;;;15.91;58.31;101229.38;5010760;28;20120;-44
2022/11/03 01:32:47;;;;;;;12.68;2.60;;;;;;;15.84;58.87;101225.00;5010820;28;20057;-44
2022/11/03 01:35:12;;;;;;;12.77;2.53;;;;;;;16.01;58.28;101219.69;5009667;28;20474;-44
2022/11/03 01:37:38;;;;;;;9.93;2.60;;;;;;;15.99;58.31;101216.19;5025660;28;20026;-44
2022/11/03 01:40:03;;;;;;;10.45;2.70;;;;;;;15.89;58.85;101215.34;5010264;28;20029;-45
2022/11/03 01:42:29;;;;;;;13.55;2.70;;;;;;;15.91;58.60;101224.13;5009762;28;20470;-43
2022/11/03 01:44:54;;;;;;;13.52;2.40;;;;;;;15.86;58.97;101217.97;5010386;28;20153;-49
2022/11/03 01:47:31;;;;;;;17.25;2.80;;;;;;;15.74;59.42;101211.00;5010471;28;20113;-44
2022/11/03 01:50:10;;;;;;;9.63;2.58;;;;;;;15.54;60.23;101204.06;5010458;28;20018;-45
2022/11/03 01:52:47;;;;;;;13.68;2.70;;;;;;;15.76;59.60;101197.84;5009758;28;20064;-45
2022/11/03 01:55:17;;;;;;;11.65;2.47;;;;;;;15.66;59.54;101194.41;5010848;28;20646;-46
2022/11/03 01:57:49;;;;;;;11.57;2.58;;;;;;;15.75;59.60;101202.25;5011006;28;20087;-45
2022/11/03 02:00:15;;;;;;;12.30;2.58;;;;;;;15.83;59.27;101200.47;5010852;28;20030;-43
2022/11/03 02:02:41;;;;;;;9.18;2.42;;;;;;;15.85;59.18;101196.97;5011296;28;20075;-43
2022/11/03 02:05:09;;;;;;;15.43;2.65;;;;;;;15.81;59.33;101196.97;5011061;28;20029;-44
2022/11/03 02:07:39;;;;;;;12.93;2.33;;;;;;;15.81;59.32;101186.44;5010799;28;20064;-44
2022/11/03 02:10:05;;;;;;;12.05;2.38;;;;;;;15.95;58.92;101178.53;5011019;28;20034;-46
2022/11/03 02:12:31;;;;;;;11.73;2.70;;;;;;;15.71;59.68;101175.97;5010513;28;20109;-44
2022/11/03 02:15:06;;;;;;;12.02;2.50;;;;;;;15.92;59.27;101164.53;5011131;28;20028;-44
2022/11/03 02:17:33;;;;;;;12.07;2.50;;;;;;;16.00;58.88;101168.84;5010634;28;20053;-43
2022/11/03 02:20:03;;;;;;;13.95;3.00;;;;;;;15.69;59.81;101164.56;5010522;28;20029;-44
2022/11/03 02:22:32;;;;;;;10.50;2.38;;;;;;;15.76;59.71;101168.94;5009414;28;20497;-43
2022/11/03 02:25:25;;;;;;;11.77;2.45;;;;;;;15.96;59.26;101151.34;5011296;28;20025;-48
2022/11/03 02:27:50;;;;;;;13.05;2.88;;;;;;;15.94;59.37;101154.84;5010404;28;20054;-45
2022/11/03 02:30:16;;;;;;;13.60;2.33;;;;;;;15.85;59.56;101158.41;5009974;28;20529;-43
2022/11/03 02:32:54;;;;;;;14.68;2.65;;;;;;;15.83;59.58;101144.38;5009655;28;20049;-47
2022/11/03 02:35:27;;;;;;;12.63;2.50;;;;;;;15.96;59.09;101140.84;5010967;28;20029;-43
2022/11/03 02:37:57;;;;;;;12.23;2.33;;;;;;;15.98;59.55;101138.22;5010845;28;20105;-44
2022/11/03 02:40:31;;;;;;;11.45;2.47;;;;;;;16.08;59.17;101134.63;5010329;28;20025;-45
2022/11/03 02:42:58;;;;;;;15.07;2.45;;;;;;;15.88;60.03;101126.84;5010526;28;20022;-44
2022/11/03 02:45:25;;;;;;;12.55;2.78;;;;;;;16.16;59.24;101130.22;5010325;28;20060;-44
2022/11/03 02:47:55;;;;;;;13.30;2.67;;;;;;;16.05;59.46;101116.22;5013308;28;20026;-44
2022/11/03 02:50:26;;;;;;;9.25;2.55;;;;;;;15.98;59.71;101102.22;5014966;28;20077;-48
2022/11/03 02:52:51;;;;;;;12.38;2.50;;;;;;;16.17;59.47;101093.38;5015455;28;20037;-42
2022/11/03 02:55:35;;;;;;;12.20;2.70;;;;;;;15.92;59.81;101094.38;5016103;28;20037;-43
2022/11/03 02:58:28;;;;;;;10.93;2.45;;;;;;;15.94;60.07;101097.88;5015446;28;20026;-45
2022/11/03 03:01:05;;;;;;;13.88;2.90;;;;;;;15.74;60.59;101092.72;5002823;28;20120;-43
2022/11/03 03:03:30;;;;;;;8.48;2.47;;;;;;;16.05;59.93;101079.41;5013308;28;20025;-46
2022/11/03 03:06:06;;;;;;;13.75;2.53;;;;;;;16.30;58.99;101064.34;5012985;28;20052;-43
2022/11/03 03:08:34;;;;;;;9.07;2.45;;;;;;;16.19;59.30;101078.47;5013167;28;20028;-45
2022/11/03 03:11:01;;;;;;;10.55;2.60;;;;;;;16.22;59.56;101064.44;5037423;22;20050;-42
2022/11/03 03:13:26;;;;;;;11.38;2.22;;;;;;;15.98;60.15;101073.31;5016101;28;20022;-40
2022/11/03 03:16:07;;;;;;;13.32;2.78;;;;;;;16.12;59.59;101065.34;5016827;28;20541;-40
2022/11/03 03:19:00;;;;;;;12.90;2.60;;;;;;;16.12;59.26;101062.72;5016352;28;20442;-38
2022/11/03 03:21:33;;;;;;;14.68;3.00;;;;;;;15.83;60.38;101068.16;5002480;28;20041;-42
2022/11/03 03:24:04;;;;;;;10.82;2.38;;;;;;;15.82;60.67;101059.38;5013255;28;20025;-40
2022/11/03 03:26:34;;;;;;;15.88;3.22;;;;;;;15.79;60.68;101067.31;5013541;28;20026;-42
2022/11/03 03:29:06;;;;;;;11.45;2.58;;;;;;;15.90;60.41;101071.63;5013023;28;20084;-44
2022/11/03 03:31:36;;;;;;;12.13;2.55;;;;;;;16.10;59.98;101060.09;5013146;28;20032;-44
2022/11/03 03:34:03;;;;;;;10.98;2.70;;;;;;;16.10;59.78;101059.25;5013391;28;20049;-41
2022/11/03 03:36:29;;;;;;;9.48;2.40;;;;;;;15.98;60.26;101051.44;5013206;28;20077;-43
2022/11/03 03:38:59;;;;;;;9.93;2.33;;;;;;;15.98;60.41;101048.81;5013269;28;20022;-40
2022/11/03 03:41:28;;;;;;;10.88;2.72;;;;;;;16.04;60.39;101039.09;5012691;28;20034;-40
2022/11/03 03:43:56;;;;;;;12.25;2.58;;;;;;;16.19;60.22;101043.38;5012906;28;20390;-43
2022/11/03 03:46:25;;;;;;;8.88;2.40;;;;;;;16.07;60.06;101039.09;5013097;28;20032;-41
2022/11/03 03:48:51;;;;;;;10.30;2.70;;;;;;;16.30;59.45;101049.44;5013950;28;20401;-38
2022/11/03 03:51:21;;;;;;;14.27;2.70;;;;;;;16.29;59.55;101036.28;5014124;28;20033;-40
2022/11/03 03:53:51;;;;;;;12.75;2.72;;;;;;;16.16;59.84;101038.16;5014775;28;20045;-40
2022/11/03 03:56:21;;;;;;;9.40;2.30;;;;;;;16.39;59.24;101040.63;5014097;28;20056;-40
2022/11/03 03:58:46;;;;;;;12.63;2.55;;;;;;;16.45;59.16;101030.91;5013166;28;20482;-41
2022/11/03 04:01:11;;;;;;;9.50;2.63;;;;;;;16.30;59.49;101030.16;5012247;28;20144;-42
2022/11/03 04:03:37;;;;;;;13.52;2.90;;;;;;;16.26;60.02;101021.41;5012703;28;20034;-42
2022/11/03 04:06:02;;;;;;;9.45;2.70;;;;;;;16.29;59.60;101017.88;5012585;28;20439;-42
2022/11/03 04:08:27;;;;;;;9.75;2.50;;;;;;;16.32;59.76;101029.25;5012730;28;20185;-40
2022/11/03 04:24:38;;;;;;;8.88;2.70;;;;;;;16.08;60.19;101014.53;5012544;28;20037;-40
2022/11/03 04:27:34;;;;;;;12.63;2.33;;;;;;;16.11;60.27;101011.00;5012576;28;20029;-42
2022/11/03 04:30:13;;;;;;;15.80;2.88;;;;;;;16.00;60.78;101012.81;5007383;28;20168;-40
2022/11/03 04:32:38;;;;;;;9.88;2.70;;;;;;;15.96;60.92;101004.09;5011984;28;20064;-41
2022/11/03 04:35:20;;;;;;;9.73;2.97;;;;;;;15.95;60.95;101004.97;5011733;28;20072;-42
2022/11/03 04:37:59;;;;;;;9.13;2.58;;;;;;;16.07;60.56;100994.38;5012362;28;20243;-40
2022/11/03 04:40:26;;;;;;;10.52;2.55;;;;;;;15.97;61.22;100997.09;5012116;28;20565;-41
2022/11/03 04:42:51;;;;;;;10.07;2.88;;;;;;;16.05;60.76;100985.59;5012543;28;20041;-44
2022/11/03 04:45:25;;;;;;;10.48;2.30;;;;;;;15.92;61.55;100988.34;5012175;28;20025;-42
2022/11/03 04:47:51;;;;;;;10.10;2.47;;;;;;;16.17;60.52;100974.13;5011974;28;20022;-40
2022/11/03 04:50:19;;;;;;;10.52;2.70;;;;;;;15.89;61.73;100980.47;5011989;28;20026;-38
2022/11/03 04:52:46;;;;;;;11.73;2.85;;;;;;;15.90;61.82;100971.72;5012170;28;20026;-43
2022/11/03 04:55:17;;;;;;;9.30;2.80;;;;;;;15.98;61.45;100968.13;5012782;28;20022;-40
2022/11/03 04:57:43;;;;;;;12.48;2.80;;;;;;;15.90;61.73;100959.44;5014815;28;20032;-40
2022/11/03 05:00:19;;;;;;;9.60;2.78;;;;;;;15.76;62.41;100958.66;5014776;28;20048;-41
2022/11/03 05:02:46;;;;;;;11.13;2.55;;;;;;;15.71;62.83;100947.28;5015131;28;20026;-40
2022/11/03 05:05:18;;;;;;;9.00;2.70;;;;;;;15.88;62.22;100953.31;5014353;28;20021;-40
2022/11/03 05:07:45;;;;;;;10.98;2.83;;;;;;;16.15;61.95;100945.22;5014756;28;20080;-40
2022/11/03 05:10:16;;;;;;;12.23;2.80;;;;;;;15.94;62.52;100947.13;5012522;28;20029;-42
2022/11/03 05:12:41;;;;;;;11.10;2.80;;;;;;;16.19;61.64;100944.31;5010643;28;20041;-41
2022/11/03 05:15:25;;;;;;;8.50;2.63;;;;;;;15.88;62.71;100937.53;5011876;28;20029;-42
2022/11/03 05:17:50;;;;;;;10.67;2.50;;;;;;;16.16;61.82;100925.91;5010770;28;20229;-42
2022/11/03 05:20:35;;;;;;;8.63;2.80;;;;;;;16.12;62.01;100928.56;5012142;28;20418;-42
2022/11/03 05:23:00;;;;;;;8.60;2.92;;;;;;;16.04;62.48;100923.38;5012453;28;20057;-42
2022/11/03 05:25:42;;;;;;;12.07;2.67;;;;;;;16.04;62.54;100914.66;5011866;28;20135;-41
2022/11/03 05:28:19;;;;;;;11.68;3.20;;;;;;;16.36;61.46;100917.84;5027135;28;20022;-43
2022/11/03 05:30:45;;;;;;;9.48;2.75;;;;;;;16.33;61.20;100914.38;5011454;28;20018;-41
2022/11/03 05:33:28;;;;;;;9.07;2.60;;;;;;;16.17;62.21;100906.59;5011628;28;20026;-41
2022/11/03 05:36:10;;;;;;;10.65;2.78;;;;;;;16.24;62.01;100900.41;5011885;28;20037;-42
2022/11/03 05:38:36;;;;;;;9.60;2.75;;;;;;;16.20;62.05;100895.19;5011332;28;20440;-41
2022/11/03 05:41:01;;;;;;;11.38;3.00;;;;;;;16.24;62.22;100895.16;5011087;28;20033;-45
2022/11/03 05:43:28;;;;;;;8.93;2.78;;;;;;;16.26;61.98;100889.88;5011473;28;20101;-41
2022/11/03 05:46:00;;;;;;;12.55;2.83;;;;;;;16.28;62.02;100895.13;5011232;28;20037;-42
2022/11/03 05:48:32;;;;;;;10.70;2.60;;;;;;;16.44;61.54;100888.81;5011462;28;20671;-41
2022/11/03 05:50:59;;;;;;;11.05;3.00;;;;;;;16.16;62.02;100877.72;5011083;28;20018;-41
2022/11/03 05:53:27;;;;;;;8.13;2.80;;;;;;;16.23;62.04;100885.50;5011314;28;20026;-41
2022/11/03 05:55:54;;;;;;;6.15;2.50;;;;;;;16.39;61.52;100888.00;5011495;28;20105;-40
2022/11/03 05:58:26;;;;;;;9.60;2.92;;;;;;;16.14;62.37;100888.25;5011996;28;20025;-42
2022/11/03 06:00:52;;;;;;;9.77;3.03;;;;;;;16.22;62.04;100885.53;5013040;28;20063;-40
2022/11/03 06:03:23;;;;;;;11.95;2.70;;;;;;;16.10;62.69;100883.03;5013786;28;20097;-40
2022/11/03 06:05:49;;;;;;;13.05;3.00;;;;;;;16.04;63.05;100883.09;5012925;28;20106;-41
2022/11/03 06:08:19;;;;;;;8.77;2.78;;;;;;;16.10;62.98;100883.03;5014238;28;20459;-40
2022/11/03 06:10:48;;;;;;;8.52;2.85;;;;;;;16.18;62.60;100876.78;5012604;28;20036;-41
2022/11/03 06:13:18;;;;;;;10.65;2.80;;;;;;;16.17;62.69;100874.16;5010969;28;20566;-42
2022/11/03 06:15:46;;;;;;;8.68;2.78;;;;;;;16.20;62.65;100871.53;5010519;28;20033;-45
2022/11/03 06:18:20;;;;;;;10.80;3.00;;;;;;;16.36;61.89;100854.69;5010573;28;20029;-40
2022/11/03 06:20:58;;;;;;;11.98;2.65;;;;;;;16.34;62.02;100859.13;5010038;28;20025;-39
2022/11/03 06:23:24;;;;;;;8.15;3.03;;;;;;;16.46;61.73;100855.47;5014403;28;20029;-41
2022/11/03 06:25:54;;;;;;;12.98;2.78;;;;;;;16.29;62.54;100860.03;5014432;28;20449;-41
2022/11/03 06:28:24;;;;;;;7.93;2.63;;;;;;;16.47;61.87;100854.56;5014201;28;20076;-46
2022/11/03 06:30:49;;;;;;;12.63;2.78;;;;;;;16.36;61.69;100852.06;5014309;28;20025;-42
2022/11/03 06:33:20;;;;;;;11.75;2.90;;;;;;;16.26;62.61;100852.19;5014084;28;20022;-40
2022/11/03 06:35:48;;;;;;;9.45;2.70;;;;;;;16.32;62.19;100842.47;5014423;28;20390;-40
2022/11/03 06:38:18;;;;;;;10.27;2.60;;;;;;;16.36;61.77;100841.53;5014130;28;20026;-42
2022/11/03 06:40:45;;;;;;;6.85;2.85;;;;;;;16.33;62.48;100849.47;5013929;28;20030;-42
2022/11/03 06:43:27;;;;;;;8.90;2.72;;;;;;;16.34;62.31;100853.84;5013981;28;20101;-41
2022/11/03 06:46:01;;;;;;;7.60;2.45;;;;;;;16.36;62.09;100843.28;5013868;28;20105;-43
2022/11/03 06:48:33;;;;;;;10.35;2.95;;;;;;;16.40;61.97;100845.03;5012466;28;20028;-42
2022/11/03 06:50:58;;;;;;;9.02;2.53;;;;;;;16.29;62.30;100838.97;5014041;28;20025;-40
2022/11/03 06:53:31;;;;;;;7.82;2.72;;;;;;;16.18;62.76;100839.97;5014184;28;20029;-41
2022/11/03 06:55:56;;;;;;;9.75;2.88;;;;;;;15.99;63.29;100834.91;5014121;28;20394;-40
2022/11/03 06:58:25;;;;;;;11.32;2.78;;;;;;;16.26;62.59;100833.75;5013985;28;20022;-41
2022/11/03 07:00:51;;;;;;;8.18;2.60;;;;;;;16.43;62.01;100839.72;5013575;28;20058;-41
2022/11/03 07:03:24;;;;;;;10.68;2.90;;;;;;;16.30;62.56;100830.19;5014151;28;20410;-43
2022/11/03 07:05:49;;;;;;;8.32;2.50;;;;;;;16.31;62.57;100824.06;5013865;28;20406;-40
2022/11/03 07:08:24;;;;;;;12.65;2.90;;;;;;;16.21;62.85;100825.94;5029017;28;20034;-41
2022/11/03 07:10:59;;;;;;;;;;;;;;;16.20;62.92;100832.06;5014410;28;20103;-40
2022/11/03 07:13:26;;;;;;;7.72;2.42;;;;;;;16.23;62.93;100830.25;5014237;28;19913;-40
2022/11/03 07:15:51;;;;;;;10.27;2.45;;;;;;;16.43;61.98;100826.56;5013935;28;20032;-40
2022/11/03 07:18:28;;;;;;;9.00;2.40;;;;;;;16.41;62.43;100818.66;5013640;28;20046;-42
2022/11/03 07:20:54;;;;;;;9.93;2.40;;;;;;;16.45;62.01;100819.53;5013315;28;20466;-43
2022/11/03 07:23:24;;;;;;;8.48;2.45;;;;;;;16.49;62.13;100814.19;5013483;28;20029;-43
2022/11/03 07:25:55;;;;;;;10.18;2.65;;;;;;;16.14;62.77;100816.34;5013873;28;20026;-43
2022/11/03 07:28:23;;;;;;;10.07;2.70;;;;;;;16.47;61.92;100812.47;5014585;28;20107;-41
2022/11/03 07:30:49;;;;;;;8.60;2.65;;;;;;;16.53;61.88;100823.78;5015313;28;20026;-42
2022/11/03 07:33:26;;;;;;;7.28;2.72;;;;;;;16.23;62.27;100825.00;5013076;28;20049;-40
2022/11/03 07:35:53;;;;;;;12.65;2.90;;;;;;;16.62;61.85;100817.59;5013377;28;20034;-43
2022/11/03 07:38:21;;;;;;;11.07;2.63;;;;;;;16.47;62.03;100813.34;5013367;28;20088;-44
2022/11/03 07:40:48;;;;;;;12.75;2.90;;;;;;;16.62;61.62;100814.97;5012741;28;20542;-43
2022/11/03 07:43:14;;;;;;;18.05;2.80;;;;;;;16.49;62.06;100818.59;5013155;28;20026;-42
2022/11/03 07:45:46;;;;;;;10.18;2.92;;;;;;;16.57;61.82;100812.34;5013552;28;20030;-43
2022/11/03 07:48:18;;;;;;;6.63;2.45;;;;;;;16.59;61.63;100818.50;5014301;28;20189;-43
2022/11/03 07:50:44;;;;;;;7.47;2.42;;;;;;;16.80;60.98;100809.47;5013751;28;20036;-43
2022/11/03 07:53:20;;;;;;;10.68;2.80;;;;;;;16.91;60.92;100801.41;5012864;28;20022;-41
2022/11/03 07:55:46;;;;;;;9.35;2.55;;;;;;;16.90;60.90;100805.81;5013392;28;20030;-42
2022/11/03 07:58:23;;;;;;;11.90;2.90;;;;;;;16.84;61.31;100798.00;5013500;28;20032;-44
2022/11/03 08:00:49;;;;;;;10.32;2.63;;;;;;;16.84;61.21;100784.81;5012956;28;20057;-41
2022/11/03 08:03:27;;;;;;;8.40;2.72;;;;;;;16.82;61.53;100791.03;5013429;28;20555;-44
2022/11/03 08:05:53;;;;;;;7.80;2.50;;;;;;;16.96;61.38;100782.00;5028687;28;20474;-41
2022/11/03 08:08:18;;;;;;;7.25;2.40;;;;;;;16.96;61.17;100773.25;5012944;28;20025;-43
2022/11/03 08:10:43;;;;;;;12.23;2.80;;;;;;;17.02;60.67;100763.50;5012710;28;20034;-45
2022/11/03 08:13:08;;;;;;;10.70;2.70;;;;;;;17.01;60.87;100755.63;5012611;28;20026;-42
2022/11/03 08:15:34;;;;;;;12.27;2.83;;;;;;;16.94;61.09;100753.97;5012726;28;20072;-41
2022/11/03 08:17:59;;;;;;;9.52;2.75;;;;;;;16.76;61.70;100751.59;5012685;28;20125;-42
2022/11/03 08:20:24;;;;;;;9.90;2.72;;;;;;;17.01;61.05;100738.06;5011908;28;20025;-40
2022/11/03 08:22:50;;;;;;;14.00;2.97;;;;;;;16.89;61.68;100745.28;5012789;28;20521;-44
2022/11/03 08:25:15;;;;;;;12.38;2.92;;;;;;;16.95;61.31;100737.28;5012832;28;20033;-43
2022/11/03 08:27:40;;;;;;;14.55;2.90;;;;;;;16.83;61.78;100725.16;5012448;28;20033;-42
2022/11/03 08:30:06;;;;;;;9.23;2.60;;;;;;;17.07;61.01;100715.16;5012023;28;20482;-40
2022/11/03 08:32:31;;;;;;;9.50;2.90;;;;;;;16.93;61.71;100726.78;5011929;28;20034;-41
2022/11/03 08:34:57;;;;;;;10.93;2.88;;;;;;;17.05;61.25;100709.91;5012665;28;20172;-41
2022/11/03 08:37:22;;;;;;;11.18;2.60;;;;;;;16.83;61.75;100706.72;5012270;28;20647;-41
2022/11/03 08:39:47;;;;;;;8.48;2.60;;;;;;;17.17;61.32;100700.94;5012226;28;20029;-42
2022/11/03 08:42:12;;;;;;;9.60;3.08;;;;;;;17.25;61.06;100693.78;5011996;28;20022;-42
2022/11/03 08:44:38;;;;;;;12.38;2.72;;;;;;;17.20;61.00;100690.38;5012091;28;20390;-42
2022/11/03 08:47:03;;;;;;;11.23;3.00;;;;;;;17.35;60.47;100683.06;5012450;28;20156;-40
2022/11/03 08:49:28;;;;;;;13.98;2.70;;;;;;;17.31;60.11;100680.50;5010968;28;20032;-41
2022/11/03 08:51:54;;;;;;;11.55;2.97;;;;;;;17.24;60.65;100681.50;5011152;28;20021;-42
2022/11/03 08:54:19;;;;;;;11.90;3.13;;;;;;;17.26;60.81;100674.47;5013147;28;20030;-41
2022/11/03 08:56:45;;;;;;;12.50;3.10;;;;;;;17.34;60.40;100668.16;5013578;28;20057;-40
2022/11/03 08:59:10;;;;;;;9.05;2.70;;;;;;;17.39;60.17;100668.94;5013338;28;20022;-40
2022/11/03 09:01:36;;;;;;;11.57;2.95;;;;;;;17.59;59.52;100658.03;5013702;28;20044;-45
2022/11/03 09:04:02;;;;;;;10.27;2.95;;;;;;;17.49;60.16;100647.69;5014054;28;20033;-41
2022/11/03 09:06:27;;;;;;;13.80;3.40;;;;;;;17.46;60.06;100651.25;5011827;28;20022;-43
2022/11/03 09:08:52;;;;;;;9.70;2.80;;;;;;;17.59;59.61;100639.56;5011716;28;20068;-47
2022/11/03 09:11:18;;;;;;;10.32;2.88;;;;;;;17.63;59.23;100637.75;5022168;23;20073;-42
2022/11/03 09:13:43;;;;;;;10.30;2.90;;;;;;;17.91;59.00;100636.34;4995741;28;20372;-47
2022/11/03 09:16:08;;;;;;;9.07;2.83;;;;;;;17.87;58.92;100641.72;4995132;28;20034;-42
2022/11/03 09:18:33;;;;;;;12.13;2.85;;;;;;;18.03;58.24;100638.72;4994231;28;20483;-43
2022/11/03 09:20:59;;;;;;;12.15;3.03;;;;;;;17.84;58.48;100626.81;4991679;28;20034;-45
2022/11/03 09:23:24;;;;;;;11.10;3.08;;;;;;;17.96;58.10;100628.31;4992552;28;20106;-45
2022/11/03 09:25:49;;;;;;;14.13;2.80;;;;;;;17.94;58.08;100627.47;4992729;28;20080;-46
2022/11/03 09:28:15;;;;;;;14.43;2.90;;;;;;;17.86;58.43;100622.38;4992044;28;20143;-48
2022/11/03 09:30:40;;;;;;;15.00;3.00;;;;;;;17.56;58.93;100613.28;4993503;28;20041;-47
2022/11/03 09:33:05;;;;;;;10.18;3.00;;;;;;;17.50;59.64;100608.13;4992375;28;20126;-44
2022/11/03 09:35:31;;;;;;;15.52;2.90;;;;;;;17.41;59.39;100603.88;4994585;28;20030;-45
2022/11/03 09:37:56;;;;;;;9.23;2.80;;;;;;;17.79;58.59;100604.94;4993583;28;20081;-44
2022/11/03 09:40:22;;;;;;;12.05;3.10;;;;;;;17.71;58.66;100606.84;4992277;28;20423;-42
2022/11/03 09:42:47;;;;;;;13.15;3.38;;;;;;;17.96;58.31;100601.94;4991684;28;20441;-44
2022/11/03 09:45:13;;;;;;;8.75;2.85;;;;;;;17.78;58.51;100595.28;4992178;28;20030;-43
2022/11/03 09:47:40;;;;;;;10.93;3.00;;;;;;;17.94;57.89;100591.44;4994102;28;20085;-43
2022/11/03 09:50:12;;;;;;;14.50;3.10;;;;;;;18.19;57.12;100591.75;4978853;28;20524;-44
2022/11/03 09:52:38;;;;;;;13.77;3.00;;;;;;;18.35;56.89;100579.09;4998012;28;20483;-42
2022/11/03 09:55:12;;;;;;;9.80;2.90;;;;;;;18.48;56.20;100580.56;4995294;28;20024;-47
2022/11/03 09:57:37;;;;;;;11.32;2.80;;;;;;;18.17;57.06;100570.72;4973316;28;20026;-48
2022/11/03 10:00:03;;;;;;;10.82;2.78;;;;;;;18.30;56.90;100578.34;4992964;28;20177;-43
2022/11/03 10:02:30;;;;;;;12.45;2.60;;;;;;;18.43;56.19;100567.44;5000508;28;20040;-44
2022/11/03 10:05:00;;;;;;;16.65;3.20;;;;;;;18.61;55.84;100559.13;4998931;28;20056;-45
2022/11/03 10:07:27;;;;;;;11.18;2.75;;;;;;;18.55;55.44;100561.03;4996526;28;20030;-42
2022/11/03 10:09:55;;;;;;;12.23;2.70;;;;;;;18.46;55.80;100555.97;4991016;28;20475;-44
2022/11/03 10:12:22;;;;;;;10.25;2.72;;;;;;;18.38;56.33;100544.72;4990658;28;20027;-45
2022/11/03 10:14:48;;;;;;;12.63;2.80;;;;;;;18.03;56.38;100535.84;4990832;28;20030;-43
2022/11/03 10:17:19;;;;;;;14.10;3.00;;;;;;;18.46;55.62;100530.44;4990558;28;20038;-43
2022/11/03 10:19:51;;;;;;;13.13;3.10;;;;;;;18.52;55.35;100530.28;4991041;28;20407;-43
2022/11/03 10:22:16;;;;;;;12.63;2.60;;;;;;;18.55;54.79;100522.31;4990418;28;20026;-46
2022/11/03 10:24:42;;;;;;;9.55;2.42;;;;;;;18.48;55.27;100520.69;4990189;28;20045;-42
2022/11/03 10:27:24;;;;;;;11.57;2.80;;;;;;;18.56;54.29;100520.53;4990545;28;20052;-44
2022/11/03 10:30:08;;;;;;;12.13;2.92;;;;;;;18.55;54.17;100510.88;4990577;28;20030;-44
2022/11/03 10:32:33;;;;;;;11.02;2.67;;;;;;;18.74;54.15;100508.66;4990077;28;20023;-44
2022/11/03 10:34:59;;;;;;;12.52;3.00;;;;;;;18.62;54.41;100508.06;4990490;28;20295;-45
2022/11/03 10:37:25;;;;;;;11.35;2.97;;;;;;;18.47;54.55;100504.91;4990431;28;20346;-44
2022/11/03 10:39:52;;;;;;;11.02;2.80;;;;;;;18.43;54.23;100497.94;4990825;28;20077;-44
2022/11/03 10:42:19;;;;;;;8.63;2.80;;;;;;;18.63;53.83;100488.66;4990914;28;20108;-46
2022/11/03 10:44:45;;;;;;;9.10;2.75;;;;;;;18.49;54.46;100493.38;4990823;28;20529;-44
2022/11/03 10:47:21;;;;;;;9.68;2.75;;;;;;;18.62;54.13;100486.06;4990247;28;20058;-42
2022/11/03 10:49:47;;;;;;;9.93;2.70;;;;;;;18.70;54.35;100480.59;4990216;28;20029;-45
2022/11/03 10:52:19;;;;;;;14.05;2.90;;;;;;;18.56;53.78;100478.31;4990328;28;20022;-45
2022/11/03 10:54:46;;;;;;;8.15;2.55;;;;;;;18.91;53.52;100457.09;4990250;28;20113;-45
2022/11/03 10:57:12;;;;;;;10.50;2.53;;;;;;;18.79;53.28;100462.72;4990318;28;20026;-44
2022/11/03 10:59:38;;;;;;;6.50;2.42;;;;;;;19.02;53.24;100464.75;4990259;28;20057;-46
2022/11/03 11:02:15;;;;;;;12.70;2.80;;;;;;;19.31;52.52;100462.16;4989899;28;20486;-44
2022/11/03 11:04:40;;;;;;;10.95;2.63;;;;;;;19.39;52.26;100464.59;4990593;28;20030;-44
2022/11/03 11:07:18;;;;;;;12.13;2.63;;;;;;;19.44;52.25;100463.53;4990744;28;20022;-42
2022/11/03 11:09:44;;;;;;;10.30;2.67;;;;;;;18.83;52.93;100460.88;4993670;28;20033;-44
2022/11/03 11:12:18;;;;;;;8.70;2.63;;;;;;;19.25;51.62;100461.47;4993250;28;20024;-43
2022/11/03 11:14:58;;;;;;;11.45;2.60;;;;;;;19.26;51.88;100461.44;4993595;28;20101;-47
2022/11/03 11:17:46;;;;;;;11.82;2.50;;;;;;;19.41;51.17;100462.72;4993650;28;20065;-45
2022/11/03 11:20:21;;;;;;;9.93;2.70;;;;;;;18.83;52.80;100445.03;4993434;28;20034;-47
2022/11/03 11:22:48;;;;;;;6.80;2.50;;;;;;;18.91;53.00;100443.03;4994131;28;20106;-44
2022/11/03 11:25:14;;;;;;;11.20;2.63;;;;;;;18.82;52.37;100440.66;4977238;28;20026;-44
2022/11/03 11:27:39;;;;;;;7.78;2.50;;;;;;;19.19;51.87;100432.56;4994858;28;20146;-44
2022/11/03 11:30:25;;;;;;;9.68;2.70;;;;;;;19.26;51.25;100418.28;4994358;28;20083;-46
2022/11/03 11:32:59;;;;;;;9.38;2.60;;;;;;;19.29;50.91;100424.31;4994535;28;20120;-45
2022/11/03 11:35:25;;;;;;;7.78;2.67;;;;;;;19.10;51.29;100401.97;4994796;28;20498;-45
2022/11/03 11:37:51;;;;;;;5.68;2.10;;;;;;;19.42;50.98;100403.66;4995260;28;20121;-44
2022/11/03 11:40:22;;;;;;;8.30;2.30;;;;;;;19.00;51.80;100390.81;4992415;28;20046;-42
2022/11/03 11:43:03;;;;;;;10.23;2.67;;;;;;;18.82;52.02;100387.84;4994411;28;20085;-46
2022/11/03 11:46:06;;;;;;;15.00;2.80;;;;;;;19.41;51.36;100378.13;4995013;28;20053;-43